sensor_id;sensor_type;location;lat;lon;timestamp;P1;durP1;ratioP1;P2;durP2;ratioP2
77591;SDS011;66891;46.884;17.436;2023-08-30T00:01:08;5.80;;;1.35;;
77591;SDS011;66891;46.884;17.436;2023-08-30T00:03:35;6.07;;;1.85;;
77591;SDS011;66891;46.884;17.436;2023-08-30T00:06:03;6.63;;;1.40;;
77591;SDS011;66891;46.884;17.436;2023-08-30T00:08:31;7.72;;;1.35;;
77591;SDS011;66891;46.884;17.436;2023-08-30T00:10:58;6.47;;;1.75;;
77591;SDS011;66891;46.884;17.436;2023-08-30T00:13:25;7.45;;;1.60;;
77591;SDS011;66891;46.884;17.436;2023-08-30T00:15:54;5.88;;;1.70;;
77591;SDS011;66891;46.884;17.436;2023-08-30T00:18:21;6.40;;;1.20;;
77591;SDS011;66891;46.884;17.436;2023-08-30T00:20:48;6.90;;;1.48;;
77591;SDS011;66891;46.884;17.436;2023-08-30T00:23:15;5.50;;;1.48;;
77591;SDS011;66891;46.884;17.436;2023-08-30T00:25:43;6.25;;;1.73;;
77591;SDS011;66891;46.884;17.436;2023-08-30T00:28:10;5.53;;;1.40;;
77591;SDS011;66891;46.884;17.436;2023-08-30T00:30:38;6.33;;;1.90;;
77591;SDS011;66891;46.884;17.436;2023-08-30T00:33:06;6.20;;;1.70;;
77591;SDS011;66891;46.884;17.436;2023-08-30T00:35:33;6.35;;;1.48;;
77591;SDS011;66891;46.884;17.436;2023-08-30T00:38:00;5.25;;;1.30;;
77591;SDS011;66891;46.884;17.436;2023-08-30T00:40:28;5.65;;;1.55;;
77591;SDS011;66891;46.884;17.436;2023-08-30T00:42:56;5.13;;;1.17;;
77591;SDS011;66891;46.884;17.436;2023-08-30T00:45:23;4.85;;;1.20;;
77591;SDS011;66891;46.884;17.436;2023-08-30T00:47:50;5.30;;;1.10;;
77591;SDS011;66891;46.884;17.436;2023-08-30T00:50:18;6.15;;;1.10;;
77591;SDS011;66891;46.884;17.436;2023-08-30T00:52:46;6.20;;;1.27;;
77591;SDS011;66891;46.884;17.436;2023-08-30T00:55:13;5.70;;;1.60;;
77591;SDS011;66891;46.884;17.436;2023-08-30T00:57:42;5.80;;;1.48;;
77591;SDS011;66891;46.884;17.436;2023-08-30T01:00:11;5.15;;;1.20;;
77591;SDS011;66891;46.884;17.436;2023-08-30T01:02:38;5.18;;;1.20;;
77591;SDS011;66891;46.884;17.436;2023-08-30T01:05:06;5.38;;;1.00;;
77591;SDS011;66891;46.884;17.436;2023-08-30T01:07:34;5.23;;;1.20;;
77591;SDS011;66891;46.884;17.436;2023-08-30T01:10:01;5.32;;;1.33;;
77591;SDS011;66891;46.884;17.436;2023-08-30T01:12:31;4.43;;;0.88;;
77591;SDS011;66891;46.884;17.436;2023-08-30T01:15:02;5.18;;;1.13;;
77591;SDS011;66891;46.884;17.436;2023-08-30T01:17:32;5.95;;;1.15;;
77591;SDS011;66891;46.884;17.436;2023-08-30T01:20:01;5.60;;;1.17;;
77591;SDS011;66891;46.884;17.436;2023-08-30T01:22:37;5.40;;;1.25;;
77591;SDS011;66891;46.884;17.436;2023-08-30T01:25:09;7.28;;;0.80;;
77591;SDS011;66891;46.884;17.436;2023-08-30T01:27:40;5.28;;;1.15;;
77591;SDS011;66891;46.884;17.436;2023-08-30T01:30:09;6.28;;;1.10;;
77591;SDS011;66891;46.884;17.436;2023-08-30T01:32:37;4.53;;;0.90;;
77591;SDS011;66891;46.884;17.436;2023-08-30T01:35:05;5.70;;;1.00;;
77591;SDS011;66891;46.884;17.436;2023-08-30T01:37:33;5.03;;;1.00;;
77591;SDS011;66891;46.884;17.436;2023-08-30T01:40:01;4.03;;;0.80;;
77591;SDS011;66891;46.884;17.436;2023-08-30T01:42:31;5.85;;;1.20;;
77591;SDS011;66891;46.884;17.436;2023-08-30T01:45:00;5.70;;;0.90;;
77591;SDS011;66891;46.884;17.436;2023-08-30T01:47:27;5.85;;;1.25;;
77591;SDS011;66891;46.884;17.436;2023-08-30T01:49:55;5.03;;;1.08;;
77591;SDS011;66891;46.884;17.436;2023-08-30T01:52:22;4.35;;;0.80;;
77591;SDS011;66891;46.884;17.436;2023-08-30T01:54:50;4.95;;;0.93;;
77591;SDS011;66891;46.884;17.436;2023-08-30T01:57:18;4.80;;;1.00;;
77591;SDS011;66891;46.884;17.436;2023-08-30T01:59:45;5.88;;;1.10;;
77591;SDS011;66891;46.884;17.436;2023-08-30T02:02:13;5.72;;;1.02;;
77591;SDS011;66891;46.884;17.436;2023-08-30T02:04:40;4.97;;;1.08;;
77591;SDS011;66891;46.884;17.436;2023-08-30T02:07:08;5.75;;;1.20;;
77591;SDS011;66891;46.884;17.436;2023-08-30T02:09:38;4.83;;;0.90;;
77591;SDS011;66891;46.884;17.436;2023-08-30T02:12:07;4.85;;;1.05;;
77591;SDS011;66891;46.884;17.436;2023-08-30T02:14:35;5.72;;;1.00;;
77591;SDS011;66891;46.884;17.436;2023-08-30T02:17:03;5.53;;;1.40;;
77591;SDS011;66891;46.884;17.436;2023-08-30T02:19:33;5.57;;;1.35;;
77591;SDS011;66891;46.884;17.436;2023-08-30T02:22:00;7.23;;;1.20;;
77591;SDS011;66891;46.884;17.436;2023-08-30T02:24:27;5.88;;;1.15;;
77591;SDS011;66891;46.884;17.436;2023-08-30T02:26:54;5.38;;;0.90;;
77591;SDS011;66891;46.884;17.436;2023-08-30T02:29:21;6.47;;;1.17;;
77591;SDS011;66891;46.884;17.436;2023-08-30T02:31:48;5.70;;;1.10;;
77591;SDS011;66891;46.884;17.436;2023-08-30T02:34:15;6.30;;;0.90;;
77591;SDS011;66891;46.884;17.436;2023-08-30T02:36:43;6.32;;;1.20;;
77591;SDS011;66891;46.884;17.436;2023-08-30T02:39:11;4.63;;;0.80;;
77591;SDS011;66891;46.884;17.436;2023-08-30T02:41:38;6.25;;;1.27;;
77591;SDS011;66891;46.884;17.436;2023-08-30T02:44:07;6.85;;;1.30;;
77591;SDS011;66891;46.884;17.436;2023-08-30T02:46:34;5.37;;;1.33;;
77591;SDS011;66891;46.884;17.436;2023-08-30T02:49:04;6.13;;;0.90;;
77591;SDS011;66891;46.884;17.436;2023-08-30T02:51:31;5.22;;;1.23;;
77591;SDS011;66891;46.884;17.436;2023-08-30T02:54:00;6.60;;;1.10;;
77591;SDS011;66891;46.884;17.436;2023-08-30T02:56:27;6.68;;;1.20;;
77591;SDS011;66891;46.884;17.436;2023-08-30T02:58:54;5.13;;;1.20;;
77591;SDS011;66891;46.884;17.436;2023-08-30T03:01:21;5.18;;;0.90;;
77591;SDS011;66891;46.884;17.436;2023-08-30T03:03:48;5.40;;;1.17;;
77591;SDS011;66891;46.884;17.436;2023-08-30T03:06:15;4.55;;;0.90;;
77591;SDS011;66891;46.884;17.436;2023-08-30T03:08:42;5.65;;;1.13;;
77591;SDS011;66891;46.884;17.436;2023-08-30T03:11:11;5.40;;;1.00;;
77591;SDS011;66891;46.884;17.436;2023-08-30T03:13:38;5.88;;;1.10;;
77591;SDS011;66891;46.884;17.436;2023-08-30T03:16:09;4.88;;;0.90;;
77591;SDS011;66891;46.884;17.436;2023-08-30T03:18:38;4.93;;;1.20;;
77591;SDS011;66891;46.884;17.436;2023-08-30T03:21:05;5.43;;;1.00;;
77591;SDS011;66891;46.884;17.436;2023-08-30T03:23:32;5.40;;;0.97;;
77591;SDS011;66891;46.884;17.436;2023-08-30T03:25:59;6.65;;;1.27;;
77591;SDS011;66891;46.884;17.436;2023-08-30T03:28:28;5.57;;;1.13;;
77591;SDS011;66891;46.884;17.436;2023-08-30T03:30:55;5.60;;;1.42;;
77591;SDS011;66891;46.884;17.436;2023-08-30T03:33:22;5.50;;;1.40;;
77591;SDS011;66891;46.884;17.436;2023-08-30T03:35:49;4.77;;;0.93;;
77591;SDS011;66891;46.884;17.436;2023-08-30T03:38:16;6.25;;;1.15;;
77591;SDS011;66891;46.884;17.436;2023-08-30T03:40:43;5.10;;;1.10;;
77591;SDS011;66891;46.884;17.436;2023-08-30T03:43:10;6.32;;;1.13;;
77591;SDS011;66891;46.884;17.436;2023-08-30T03:45:38;5.22;;;1.17;;
77591;SDS011;66891;46.884;17.436;2023-08-30T03:48:05;4.67;;;1.10;;
77591;SDS011;66891;46.884;17.436;2023-08-30T03:50:33;5.85;;;1.00;;
77591;SDS011;66891;46.884;17.436;2023-08-30T03:53:00;5.55;;;1.30;;
77591;SDS011;66891;46.884;17.436;2023-08-30T03:55:27;5.72;;;1.10;;
77591;SDS011;66891;46.884;17.436;2023-08-30T03:57:54;5.90;;;1.38;;
77591;SDS011;66891;46.884;17.436;2023-08-30T04:00:21;10.50;;;1.27;;
77591;SDS011;66891;46.884;17.436;2023-08-30T04:02:49;5.22;;;1.10;;
77591;SDS011;66891;46.884;17.436;2023-08-30T04:05:16;6.45;;;1.20;;
77591;SDS011;66891;46.884;17.436;2023-08-30T04:07:43;6.10;;;1.00;;
77591;SDS011;66891;46.884;17.436;2023-08-30T04:10:10;5.60;;;1.20;;
77591;SDS011;66891;46.884;17.436;2023-08-30T04:12:37;5.90;;;1.10;;
77591;SDS011;66891;46.884;17.436;2023-08-30T04:15:04;5.20;;;1.20;;
77591;SDS011;66891;46.884;17.436;2023-08-30T04:17:32;6.82;;;1.27;;
77591;SDS011;66891;46.884;17.436;2023-08-30T04:20:00;6.28;;;1.20;;
77591;SDS011;66891;46.884;17.436;2023-08-30T04:22:31;5.85;;;1.10;;
77591;SDS011;66891;46.884;17.436;2023-08-30T04:25:01;6.37;;;1.43;;
77591;SDS011;66891;46.884;17.436;2023-08-30T04:27:28;5.45;;;1.00;;
77591;SDS011;66891;46.884;17.436;2023-08-30T04:29:55;9.50;;;1.42;;
77591;SDS011;66891;46.884;17.436;2023-08-30T04:32:22;4.65;;;0.90;;
77591;SDS011;66891;46.884;17.436;2023-08-30T04:34:49;7.35;;;1.50;;
77591;SDS011;66891;46.884;17.436;2023-08-30T04:37:18;5.07;;;1.33;;
77591;SDS011;66891;46.884;17.436;2023-08-30T04:39:46;6.45;;;1.25;;
77591;SDS011;66891;46.884;17.436;2023-08-30T04:42:13;7.07;;;1.33;;
77591;SDS011;66891;46.884;17.436;2023-08-30T04:44:40;6.40;;;1.35;;
77591;SDS011;66891;46.884;17.436;2023-08-30T04:47:07;6.32;;;1.30;;
77591;SDS011;66891;46.884;17.436;2023-08-30T04:49:34;6.27;;;1.17;;
77591;SDS011;66891;46.884;17.436;2023-08-30T04:52:01;5.88;;;1.38;;
77591;SDS011;66891;46.884;17.436;2023-08-30T04:54:30;6.45;;;1.10;;
77591;SDS011;66891;46.884;17.436;2023-08-30T04:56:57;5.85;;;1.23;;
77591;SDS011;66891;46.884;17.436;2023-08-30T04:59:24;5.55;;;1.40;;
77591;SDS011;66891;46.884;17.436;2023-08-30T05:01:51;6.83;;;1.40;;
77591;SDS011;66891;46.884;17.436;2023-08-30T05:04:18;6.07;;;1.10;;
77591;SDS011;66891;46.884;17.436;2023-08-30T05:06:45;6.80;;;1.33;;
77591;SDS011;66891;46.884;17.436;2023-08-30T05:09:12;8.35;;;1.58;;
77591;SDS011;66891;46.884;17.436;2023-08-30T05:11:41;5.00;;;1.20;;
77591;SDS011;66891;46.884;17.436;2023-08-30T05:14:08;6.53;;;1.27;;
77591;SDS011;66891;46.884;17.436;2023-08-30T05:16:39;5.90;;;1.45;;
77591;SDS011;66891;46.884;17.436;2023-08-30T05:19:06;6.22;;;1.20;;
77591;SDS011;66891;46.884;17.436;2023-08-30T05:21:33;6.35;;;1.30;;
77591;SDS011;66891;46.884;17.436;2023-08-30T05:24:00;6.18;;;1.42;;
77591;SDS011;66891;46.884;17.436;2023-08-30T05:26:27;5.53;;;1.50;;
77591;SDS011;66891;46.884;17.436;2023-08-30T05:28:55;7.82;;;1.50;;
77591;SDS011;66891;46.884;17.436;2023-08-30T05:31:22;6.95;;;1.50;;
77591;SDS011;66891;46.884;17.436;2023-08-30T05:33:49;5.40;;;1.20;;
77591;SDS011;66891;46.884;17.436;2023-08-30T05:36:17;5.50;;;1.60;;
77591;SDS011;66891;46.884;17.436;2023-08-30T05:38:44;6.00;;;1.40;;
77591;SDS011;66891;46.884;17.436;2023-08-30T05:41:11;8.57;;;1.50;;
77591;SDS011;66891;46.884;17.436;2023-08-30T05:43:38;6.20;;;1.38;;
77591;SDS011;66891;46.884;17.436;2023-08-30T05:46:06;6.72;;;1.50;;
77591;SDS011;66891;46.884;17.436;2023-08-30T05:48:39;6.40;;;1.60;;
77591;SDS011;66891;46.884;17.436;2023-08-30T05:51:06;6.80;;;1.53;;
77591;SDS011;66891;46.884;17.436;2023-08-30T05:53:33;6.78;;;1.30;;
77591;SDS011;66891;46.884;17.436;2023-08-30T05:56:00;6.75;;;1.90;;
77591;SDS011;66891;46.884;17.436;2023-08-30T05:58:27;5.95;;;1.60;;
77591;SDS011;66891;46.884;17.436;2023-08-30T06:00:53;5.53;;;1.40;;
77591;SDS011;66891;46.884;17.436;2023-08-30T06:03:22;6.60;;;1.30;;
77591;SDS011;66891;46.884;17.436;2023-08-30T06:05:49;6.10;;;1.40;;
77591;SDS011;66891;46.884;17.436;2023-08-30T06:08:16;6.47;;;1.35;;
77591;SDS011;66891;46.884;17.436;2023-08-30T06:10:44;7.25;;;1.42;;
77591;SDS011;66891;46.884;17.436;2023-08-30T06:13:12;6.60;;;1.90;;
77591;SDS011;66891;46.884;17.436;2023-08-30T06:15:39;6.57;;;1.50;;
77591;SDS011;66891;46.884;17.436;2023-08-30T06:18:05;6.80;;;1.70;;
77591;SDS011;66891;46.884;17.436;2023-08-30T06:20:35;6.97;;;1.92;;
77591;SDS011;66891;46.884;17.436;2023-08-30T06:23:02;6.40;;;1.60;;
77591;SDS011;66891;46.884;17.436;2023-08-30T06:25:29;6.30;;;1.70;;
77591;SDS011;66891;46.884;17.436;2023-08-30T06:27:57;6.63;;;1.93;;
77591;SDS011;66891;46.884;17.436;2023-08-30T06:30:25;5.82;;;1.70;;
77591;SDS011;66891;46.884;17.436;2023-08-30T06:32:53;6.88;;;1.90;;
77591;SDS011;66891;46.884;17.436;2023-08-30T06:35:25;5.88;;;1.42;;
77591;SDS011;66891;46.884;17.436;2023-08-30T06:37:56;5.57;;;1.60;;
77591;SDS011;66891;46.884;17.436;2023-08-30T06:40:23;6.43;;;1.63;;
77591;SDS011;66891;46.884;17.436;2023-08-30T06:42:52;5.63;;;1.50;;
77591;SDS011;66891;46.884;17.436;2023-08-30T06:45:19;6.07;;;1.83;;
77591;SDS011;66891;46.884;17.436;2023-08-30T06:47:47;8.20;;;1.52;;
77591;SDS011;66891;46.884;17.436;2023-08-30T06:50:15;7.05;;;1.65;;
77591;SDS011;66891;46.884;17.436;2023-08-30T06:52:44;6.40;;;1.33;;
77591;SDS011;66891;46.884;17.436;2023-08-30T06:55:13;6.18;;;1.50;;
77591;SDS011;66891;46.884;17.436;2023-08-30T06:57:47;5.82;;;1.50;;
77591;SDS011;66891;46.884;17.436;2023-08-30T07:00:18;6.25;;;1.60;;
77591;SDS011;66891;46.884;17.436;2023-08-30T07:02:49;5.53;;;1.67;;
77591;SDS011;66891;46.884;17.436;2023-08-30T07:05:17;5.73;;;1.60;;
77591;SDS011;66891;46.884;17.436;2023-08-30T07:07:46;5.47;;;1.30;;
77591;SDS011;66891;46.884;17.436;2023-08-30T07:10:16;6.90;;;1.70;;
77591;SDS011;66891;46.884;17.436;2023-08-30T07:12:50;6.00;;;1.63;;
77591;SDS011;66891;46.884;17.436;2023-08-30T07:15:20;6.28;;;1.35;;
77591;SDS011;66891;46.884;17.436;2023-08-30T07:17:48;6.37;;;1.33;;
77591;SDS011;66891;46.884;17.436;2023-08-30T07:20:19;6.03;;;1.40;;
77591;SDS011;66891;46.884;17.436;2023-08-30T07:22:47;5.28;;;1.20;;
77591;SDS011;66891;46.884;17.436;2023-08-30T07:25:18;5.30;;;1.23;;
77591;SDS011;66891;46.884;17.436;2023-08-30T07:27:46;5.47;;;1.20;;
77591;SDS011;66891;46.884;17.436;2023-08-30T07:30:13;5.40;;;1.20;;
77591;SDS011;66891;46.884;17.436;2023-08-30T07:32:42;6.32;;;1.10;;
77591;SDS011;66891;46.884;17.436;2023-08-30T07:35:09;5.10;;;1.27;;
77591;SDS011;66891;46.884;17.436;2023-08-30T07:37:41;5.50;;;1.50;;
77591;SDS011;66891;46.884;17.436;2023-08-30T07:40:09;6.10;;;1.92;;
77591;SDS011;66891;46.884;17.436;2023-08-30T07:42:42;5.37;;;1.40;;
77591;SDS011;66891;46.884;17.436;2023-08-30T07:45:09;4.97;;;1.33;;
77591;SDS011;66891;46.884;17.436;2023-08-30T07:47:40;5.43;;;1.40;;
77591;SDS011;66891;46.884;17.436;2023-08-30T07:50:08;6.03;;;1.35;;
77591;SDS011;66891;46.884;17.436;2023-08-30T07:52:35;5.60;;;1.67;;
77591;SDS011;66891;46.884;17.436;2023-08-30T07:55:12;5.70;;;1.10;;
77591;SDS011;66891;46.884;17.436;2023-08-30T07:57:41;6.00;;;1.45;;
77591;SDS011;66891;46.884;17.436;2023-08-30T08:00:09;5.05;;;1.25;;
77591;SDS011;66891;46.884;17.436;2023-08-30T08:02:36;4.80;;;1.00;;
77591;SDS011;66891;46.884;17.436;2023-08-30T08:05:04;5.82;;;1.50;;
77591;SDS011;66891;46.884;17.436;2023-08-30T08:07:31;5.20;;;1.20;;
77591;SDS011;66891;46.884;17.436;2023-08-30T08:09:57;5.55;;;1.17;;
77591;SDS011;66891;46.884;17.436;2023-08-30T08:12:25;5.07;;;1.42;;
77591;SDS011;66891;46.884;17.436;2023-08-30T08:14:53;4.85;;;1.42;;
77591;SDS011;66891;46.884;17.436;2023-08-30T08:17:20;5.57;;;1.63;;
77591;SDS011;66891;46.884;17.436;2023-08-30T08:19:47;5.77;;;1.27;;
77591;SDS011;66891;46.884;17.436;2023-08-30T08:22:15;6.20;;;1.40;;
77591;SDS011;66891;46.884;17.436;2023-08-30T08:24:42;5.43;;;1.50;;
77591;SDS011;66891;46.884;17.436;2023-08-30T08:27:10;5.15;;;1.05;;
77591;SDS011;66891;46.884;17.436;2023-08-30T08:29:38;4.63;;;1.13;;
77591;SDS011;66891;46.884;17.436;2023-08-30T08:32:06;5.10;;;1.70;;
77591;SDS011;66891;46.884;17.436;2023-08-30T08:34:33;5.28;;;1.23;;
77591;SDS011;66891;46.884;17.436;2023-08-30T08:37:00;4.70;;;1.30;;
77591;SDS011;66891;46.884;17.436;2023-08-30T08:39:27;5.18;;;1.55;;
77591;SDS011;66891;46.884;17.436;2023-08-30T08:41:54;5.60;;;1.83;;
77591;SDS011;66891;46.884;17.436;2023-08-30T08:44:21;6.43;;;1.30;;
77591;SDS011;66891;46.884;17.436;2023-08-30T08:46:49;4.57;;;1.48;;
77591;SDS011;66891;46.884;17.436;2023-08-30T08:49:19;6.10;;;1.50;;
77591;SDS011;66891;46.884;17.436;2023-08-30T08:51:46;6.32;;;1.45;;
77591;SDS011;66891;46.884;17.436;2023-08-30T08:54:13;5.47;;;1.70;;
77591;SDS011;66891;46.884;17.436;2023-08-30T08:56:40;4.60;;;0.90;;
77591;SDS011;66891;46.884;17.436;2023-08-30T08:59:08;4.90;;;1.02;;
77591;SDS011;66891;46.884;17.436;2023-08-30T09:01:36;5.18;;;1.40;;
77591;SDS011;66891;46.884;17.436;2023-08-30T09:04:04;5.72;;;1.20;;
77591;SDS011;66891;46.884;17.436;2023-08-30T09:06:33;4.90;;;1.20;;
77591;SDS011;66891;46.884;17.436;2023-08-30T09:09:00;5.40;;;1.40;;
77591;SDS011;66891;46.884;17.436;2023-08-30T09:11:27;4.60;;;1.30;;
77591;SDS011;66891;46.884;17.436;2023-08-30T09:14:15;5.43;;;1.20;;
77591;SDS011;66891;46.884;17.436;2023-08-30T09:16:42;5.05;;;1.40;;
77591;SDS011;66891;46.884;17.436;2023-08-30T09:19:09;4.25;;;1.17;;
77591;SDS011;66891;46.884;17.436;2023-08-30T09:21:38;5.20;;;1.23;;
77591;SDS011;66891;46.884;17.436;2023-08-30T09:24:06;4.85;;;1.20;;
77591;SDS011;66891;46.884;17.436;2023-08-30T09:26:34;5.30;;;1.58;;
77591;SDS011;66891;46.884;17.436;2023-08-30T09:29:06;4.70;;;1.67;;
77591;SDS011;66891;46.884;17.436;2023-08-30T09:31:33;5.38;;;1.50;;
77591;SDS011;66891;46.884;17.436;2023-08-30T09:34:00;5.27;;;1.40;;
77591;SDS011;66891;46.884;17.436;2023-08-30T09:36:32;5.43;;;1.30;;
77591;SDS011;66891;46.884;17.436;2023-08-30T09:39:04;4.70;;;1.50;;
77591;SDS011;66891;46.884;17.436;2023-08-30T09:41:31;4.93;;;1.60;;
77591;SDS011;66891;46.884;17.436;2023-08-30T09:43:59;4.60;;;1.10;;
77591;SDS011;66891;46.884;17.436;2023-08-30T09:46:41;5.10;;;1.60;;
77591;SDS011;66891;46.884;17.436;2023-08-30T09:49:18;6.60;;;1.83;;
77591;SDS011;66891;46.884;17.436;2023-08-30T09:51:45;5.38;;;1.45;;
77591;SDS011;66891;46.884;17.436;2023-08-30T09:54:16;5.03;;;1.33;;
77591;SDS011;66891;46.884;17.436;2023-08-30T09:57:02;4.95;;;1.38;;
77591;SDS011;66891;46.884;17.436;2023-08-30T09:59:30;5.20;;;1.47;;
77591;SDS011;66891;46.884;17.436;2023-08-30T10:01:57;5.97;;;1.60;;
77591;SDS011;66891;46.884;17.436;2023-08-30T10:04:27;5.22;;;1.48;;
77591;SDS011;66891;46.884;17.436;2023-08-30T10:06:55;4.95;;;1.60;;
77591;SDS011;66891;46.884;17.436;2023-08-30T10:09:25;5.97;;;1.70;;
77591;SDS011;66891;46.884;17.436;2023-08-30T10:11:52;5.80;;;1.80;;
77591;SDS011;66891;46.884;17.436;2023-08-30T10:14:20;5.35;;;1.80;;
77591;SDS011;66891;46.884;17.436;2023-08-30T10:16:47;5.78;;;2.10;;
77591;SDS011;66891;46.884;17.436;2023-08-30T10:19:15;5.40;;;1.70;;
77591;SDS011;66891;46.884;17.436;2023-08-30T10:21:43;6.05;;;1.90;;
77591;SDS011;66891;46.884;17.436;2023-08-30T10:24:11;5.30;;;1.60;;
77591;SDS011;66891;46.884;17.436;2023-08-30T10:27:09;5.03;;;1.40;;
77591;SDS011;66891;46.884;17.436;2023-08-30T10:29:37;5.38;;;2.10;;
77591;SDS011;66891;46.884;17.436;2023-08-30T10:32:06;5.63;;;1.80;;
77591;SDS011;66891;46.884;17.436;2023-08-30T10:34:33;5.55;;;1.77;;
77591;SDS011;66891;46.884;17.436;2023-08-30T10:37:06;5.50;;;2.00;;
77591;SDS011;66891;46.884;17.436;2023-08-30T10:39:34;5.97;;;1.70;;
77591;SDS011;66891;46.884;17.436;2023-08-30T10:42:08;7.05;;;1.90;;
77591;SDS011;66891;46.884;17.436;2023-08-30T10:44:46;8.02;;;2.10;;
77591;SDS011;66891;46.884;17.436;2023-08-30T10:47:24;6.20;;;2.00;;
77591;SDS011;66891;46.884;17.436;2023-08-30T10:49:56;5.80;;;1.63;;
77591;SDS011;66891;46.884;17.436;2023-08-30T10:52:23;5.68;;;2.20;;
77591;SDS011;66891;46.884;17.436;2023-08-30T10:54:50;5.20;;;1.70;;
77591;SDS011;66891;46.884;17.436;2023-08-30T10:57:21;5.53;;;1.88;;
77591;SDS011;66891;46.884;17.436;2023-08-30T11:00:03;5.78;;;1.92;;
77591;SDS011;66891;46.884;17.436;2023-08-30T11:02:31;6.40;;;2.30;;
77591;SDS011;66891;46.884;17.436;2023-08-30T11:04:58;6.28;;;2.15;;
77591;SDS011;66891;46.884;17.436;2023-08-30T11:07:25;5.63;;;2.10;;
77591;SDS011;66891;46.884;17.436;2023-08-30T11:09:53;5.28;;;1.33;;
77591;SDS011;66891;46.884;17.436;2023-08-30T11:12:21;6.88;;;2.42;;
77591;SDS011;66891;46.884;17.436;2023-08-30T11:14:49;5.50;;;1.70;;
77591;SDS011;66891;46.884;17.436;2023-08-30T11:17:16;5.03;;;1.52;;
77591;SDS011;66891;46.884;17.436;2023-08-30T11:19:43;6.03;;;1.92;;
77591;SDS011;66891;46.884;17.436;2023-08-30T11:22:12;5.50;;;1.95;;
77591;SDS011;66891;46.884;17.436;2023-08-30T11:24:41;7.28;;;1.83;;
77591;SDS011;66891;46.884;17.436;2023-08-30T11:27:09;4.90;;;1.67;;
77591;SDS011;66891;46.884;17.436;2023-08-30T11:29:38;6.20;;;1.63;;
77591;SDS011;66891;46.884;17.436;2023-08-30T11:32:07;5.75;;;1.83;;
77591;SDS011;66891;46.884;17.436;2023-08-30T11:34:37;5.25;;;1.38;;
77591;SDS011;66891;46.884;17.436;2023-08-30T11:37:04;4.93;;;1.70;;
77591;SDS011;66891;46.884;17.436;2023-08-30T11:39:31;6.63;;;1.60;;
77591;SDS011;66891;46.884;17.436;2023-08-30T11:41:58;4.88;;;1.48;;
77591;SDS011;66891;46.884;17.436;2023-08-30T11:44:43;5.40;;;1.50;;
77591;SDS011;66891;46.884;17.436;2023-08-30T11:47:11;5.47;;;1.48;;
77591;SDS011;66891;46.884;17.436;2023-08-30T11:49:37;4.82;;;1.38;;
77591;SDS011;66891;46.884;17.436;2023-08-30T11:52:06;5.07;;;1.70;;
77591;SDS011;66891;46.884;17.436;2023-08-30T11:54:34;5.20;;;1.73;;
77591;SDS011;66891;46.884;17.436;2023-08-30T11:57:01;5.72;;;1.80;;
77591;SDS011;66891;46.884;17.436;2023-08-30T11:59:28;5.47;;;1.83;;
77591;SDS011;66891;46.884;17.436;2023-08-30T12:01:57;5.90;;;2.03;;
77591;SDS011;66891;46.884;17.436;2023-08-30T12:04:23;5.60;;;1.90;;
77591;SDS011;66891;46.884;17.436;2023-08-30T12:06:51;6.45;;;2.20;;
77591;SDS011;66891;46.884;17.436;2023-08-30T12:09:18;6.78;;;1.75;;
77591;SDS011;66891;46.884;17.436;2023-08-30T12:11:48;5.45;;;1.35;;
77591;SDS011;66891;46.884;17.436;2023-08-30T12:14:15;5.05;;;1.52;;
77591;SDS011;66891;46.884;17.436;2023-08-30T12:16:43;4.87;;;1.50;;
77591;SDS011;66891;46.884;17.436;2023-08-30T12:19:14;6.43;;;1.52;;
77591;SDS011;66891;46.884;17.436;2023-08-30T12:21:42;4.90;;;1.70;;
77591;SDS011;66891;46.884;17.436;2023-08-30T12:24:09;5.13;;;1.52;;
77591;SDS011;66891;46.884;17.436;2023-08-30T12:26:36;5.40;;;2.03;;
77591;SDS011;66891;46.884;17.436;2023-08-30T12:29:06;5.13;;;1.70;;
77591;SDS011;66891;46.884;17.436;2023-08-30T12:31:33;6.28;;;1.52;;
77591;SDS011;66891;46.884;17.436;2023-08-30T12:34:00;5.00;;;1.98;;
77591;SDS011;66891;46.884;17.436;2023-08-30T12:36:29;4.93;;;1.60;;
77591;SDS011;66891;46.884;17.436;2023-08-30T12:38:56;5.03;;;1.67;;
77591;SDS011;66891;46.884;17.436;2023-08-30T12:41:23;4.83;;;1.50;;
77591;SDS011;66891;46.884;17.436;2023-08-30T12:43:50;4.72;;;1.50;;
77591;SDS011;66891;46.884;17.436;2023-08-30T12:46:18;4.75;;;1.60;;
77591;SDS011;66891;46.884;17.436;2023-08-30T12:48:44;4.70;;;1.90;;
77591;SDS011;66891;46.884;17.436;2023-08-30T12:51:11;5.03;;;1.70;;
77591;SDS011;66891;46.884;17.436;2023-08-30T12:53:41;4.70;;;1.50;;
77591;SDS011;66891;46.884;17.436;2023-08-30T12:56:08;5.55;;;1.45;;
77591;SDS011;66891;46.884;17.436;2023-08-30T12:58:35;5.40;;;1.55;;
77591;SDS011;66891;46.884;17.436;2023-08-30T13:01:02;4.55;;;1.00;;
77591;SDS011;66891;46.884;17.436;2023-08-30T13:03:31;6.05;;;1.55;;
77591;SDS011;66891;46.884;17.436;2023-08-30T13:05:58;4.53;;;1.10;;
77591;SDS011;66891;46.884;17.436;2023-08-30T13:08:25;4.00;;;1.00;;
77591;SDS011;66891;46.884;17.436;2023-08-30T13:10:53;5.22;;;1.23;;
77591;SDS011;66891;46.884;17.436;2023-08-30T13:13:20;3.90;;;0.98;;
77591;SDS011;66891;46.884;17.436;2023-08-30T13:15:48;4.07;;;0.90;;
77591;SDS011;66891;46.884;17.436;2023-08-30T13:18:15;3.70;;;0.87;;
77591;SDS011;66891;46.884;17.436;2023-08-30T13:20:42;6.93;;;1.45;;
77591;SDS011;66891;46.884;17.436;2023-08-30T13:23:09;4.38;;;1.30;;
77591;SDS011;66891;46.884;17.436;2023-08-30T13:25:38;6.28;;;1.30;;
77591;SDS011;66891;46.884;17.436;2023-08-30T13:28:06;4.70;;;1.20;;
77591;SDS011;66891;46.884;17.436;2023-08-30T13:30:34;4.20;;;1.17;;
77591;SDS011;66891;46.884;17.436;2023-08-30T13:33:01;5.80;;;0.80;;
77591;SDS011;66891;46.884;17.436;2023-08-30T13:35:28;4.75;;;0.90;;
77591;SDS011;66891;46.884;17.436;2023-08-30T13:37:55;3.25;;;0.70;;
77591;SDS011;66891;46.884;17.436;2023-08-30T13:40:22;3.72;;;1.00;;
77591;SDS011;66891;46.884;17.436;2023-08-30T13:42:49;4.40;;;1.10;;
77591;SDS011;66891;46.884;17.436;2023-08-30T13:45:18;4.22;;;0.90;;
77591;SDS011;66891;46.884;17.436;2023-08-30T13:47:45;3.75;;;0.90;;
77591;SDS011;66891;46.884;17.436;2023-08-30T13:50:13;5.72;;;1.10;;
77591;SDS011;66891;46.884;17.436;2023-08-30T13:52:40;4.15;;;1.05;;
77591;SDS011;66891;46.884;17.436;2023-08-30T13:55:08;4.47;;;1.20;;
77591;SDS011;66891;46.884;17.436;2023-08-30T13:57:34;5.10;;;1.35;;
77591;SDS011;66891;46.884;17.436;2023-08-30T14:00:02;4.88;;;1.20;;
77591;SDS011;66891;46.884;17.436;2023-08-30T14:02:34;5.18;;;1.33;;
77591;SDS011;66891;46.884;17.436;2023-08-30T14:05:01;4.28;;;1.10;;
77591;SDS011;66891;46.884;17.436;2023-08-30T14:07:28;4.70;;;1.10;;
77591;SDS011;66891;46.884;17.436;2023-08-30T14:09:56;4.18;;;0.93;;
77591;SDS011;66891;46.884;17.436;2023-08-30T14:12:23;4.13;;;0.98;;
77591;SDS011;66891;46.884;17.436;2023-08-30T14:14:50;3.60;;;0.90;;
77591;SDS011;66891;46.884;17.436;2023-08-30T14:17:17;4.18;;;1.17;;
77591;SDS011;66891;46.884;17.436;2023-08-30T14:19:47;4.10;;;0.70;;
77591;SDS011;66891;46.884;17.436;2023-08-30T14:22:14;4.05;;;0.90;;
77591;SDS011;66891;46.884;17.436;2023-08-30T14:24:41;4.43;;;1.00;;
77591;SDS011;66891;46.884;17.436;2023-08-30T14:27:28;4.22;;;1.20;;
77591;SDS011;66891;46.884;17.436;2023-08-30T14:29:55;4.68;;;1.48;;
77591;SDS011;66891;46.884;17.436;2023-08-30T14:32:22;4.30;;;0.90;;
77591;SDS011;66891;46.884;17.436;2023-08-30T14:34:51;3.58;;;0.93;;
77591;SDS011;66891;46.884;17.436;2023-08-30T14:37:18;4.03;;;1.17;;
77591;SDS011;66891;46.884;17.436;2023-08-30T14:39:45;3.85;;;1.00;;